sensor_id;sensor_type;location;lat;lon;timestamp;pressure;altitude;pressure_sealevel;temperature;humidity
29879;BME280;16752;53.364;-1.488;2023-11-21T00:02:24;100466.69;;;17.05;48.57
29879;BME280;16752;53.364;-1.488;2023-11-21T00:05:11;100473.91;;;17.41;48.12
29879;BME280;16752;53.364;-1.488;2023-11-21T00:07:57;100482.16;;;17.00;48.73
29879;BME280;16752;53.364;-1.488;2023-11-21T00:10:41;100479.94;;;16.95;48.66
29879;BME280;16752;53.364;-1.488;2023-11-21T00:13:25;100494.75;;;16.58;49.43
29879;BME280;16752;53.364;-1.488;2023-11-21T00:16:10;100471.53;;;16.90;47.95
29879;BME280;16752;53.364;-1.488;2023-11-21T00:18:54;100479.63;;;16.89;47.84
29879;BME280;16752;53.364;-1.488;2023-11-21T00:21:38;100482.03;;;16.92;47.47
29879;BME280;16752;53.364;-1.488;2023-11-21T00:24:22;100491.75;;;16.91;47.69
29879;BME280;16752;53.364;-1.488;2023-11-21T00:27:06;100512.66;;;17.23;47.60
29879;BME280;16752;53.364;-1.488;2023-11-21T00:29:50;100501.09;;;17.05;46.87
29879;BME280;16752;53.364;-1.488;2023-11-21T00:32:35;100508.44;;;16.82;47.55
29879;BME280;16752;53.364;-1.488;2023-11-21T00:35:19;100524.50;;;17.29;46.59
29879;BME280;16752;53.364;-1.488;2023-11-21T00:38:03;100525.56;;;16.78;47.24
29879;BME280;16752;53.364;-1.488;2023-11-21T00:40:47;100532.88;;;17.15;47.10
29879;BME280;16752;53.364;-1.488;2023-11-21T00:43:31;100533.56;;;16.97;47.85
29879;BME280;16752;53.364;-1.488;2023-11-21T00:46:15;100538.94;;;16.86;47.79
29879;BME280;16752;53.364;-1.488;2023-11-21T00:49:24;100543.53;;;16.84;47.26
29879;BME280;16752;53.364;-1.488;2023-11-21T00:52:08;100531.28;;;16.83;47.06
29879;BME280;16752;53.364;-1.488;2023-11-21T00:54:53;100528.72;;;16.22;47.88
29879;BME280;16752;53.364;-1.488;2023-11-21T00:57:37;100532.53;;;16.89;46.75
29879;BME280;16752;53.364;-1.488;2023-11-21T01:00:21;100519.78;;;16.54;47.04
29879;BME280;16752;53.364;-1.488;2023-11-21T01:03:05;100525.31;;;16.91;45.93
29879;BME280;16752;53.364;-1.488;2023-11-21T01:05:49;100546.94;;;16.25;47.19
29879;BME280;16752;53.364;-1.488;2023-11-21T01:08:34;100559.47;;;16.63;46.47
29879;BME280;16752;53.364;-1.488;2023-11-21T01:11:18;100521.03;;;16.59;46.00
29879;BME280;16752;53.364;-1.488;2023-11-21T01:14:02;100570.19;;;16.92;46.12
29879;BME280;16752;53.364;-1.488;2023-11-21T01:16:47;100537.69;;;16.40;47.08
29879;BME280;16752;53.364;-1.488;2023-11-21T01:19:32;100579.66;;;16.55;46.79
29879;BME280;16752;53.364;-1.488;2023-11-21T01:22:16;100585.38;;;16.60;46.72
29879;BME280;16752;53.364;-1.488;2023-11-21T01:25:02;100571.94;;;16.82;46.55
29879;BME280;16752;53.364;-1.488;2023-11-21T01:27:48;100572.88;;;16.31;46.80
29879;BME280;16752;53.364;-1.488;2023-11-21T01:30:32;100570.78;;;16.35;47.31
29879;BME280;16752;53.364;-1.488;2023-11-21T01:33:16;100566.44;;;16.64;46.00
29879;BME280;16752;53.364;-1.488;2023-11-21T01:36:00;100571.59;;;16.66;46.35
29879;BME280;16752;53.364;-1.488;2023-11-21T01:38:44;100557.31;;;16.38;46.56
29879;BME280;16752;53.364;-1.488;2023-11-21T01:41:28;100573.78;;;16.20;46.92
29879;BME280;16752;53.364;-1.488;2023-11-21T01:44:12;100567.22;;;16.45;46.48
29879;BME280;16752;53.364;-1.488;2023-11-21T01:46:57;100578.69;;;16.56;45.55
29879;BME280;16752;53.364;-1.488;2023-11-21T01:49:43;100586.97;;;15.58;48.11
29879;BME280;16752;53.364;-1.488;2023-11-21T01:52:28;100576.13;;;16.14;46.91
29879;BME280;16752;53.364;-1.488;2023-11-21T01:55:14;100592.88;;;16.55;45.29
29879;BME280;16752;53.364;-1.488;2023-11-21T01:58:00;100612.88;;;16.47;45.41
29879;BME280;16752;53.364;-1.488;2023-11-21T02:00:45;100622.41;;;16.60;45.32
29879;BME280;16752;53.364;-1.488;2023-11-21T02:03:29;100610.47;;;16.14;45.30
29879;BME280;16752;53.364;-1.488;2023-11-21T02:06:13;100637.47;;;16.38;46.14
29879;BME280;16752;53.364;-1.488;2023-11-21T02:08:57;100620.34;;;16.42;45.02
29879;BME280;16752;53.364;-1.488;2023-11-21T02:11:41;100608.19;;;16.61;44.97
29879;BME280;16752;53.364;-1.488;2023-11-21T02:14:25;100632.56;;;16.34;45.63
29879;BME280;16752;53.364;-1.488;2023-11-21T02:17:10;100642.31;;;16.33;45.16
29879;BME280;16752;53.364;-1.488;2023-11-21T02:19:54;100644.09;;;16.54;45.11
29879;BME280;16752;53.364;-1.488;2023-11-21T02:22:39;100653.44;;;16.58;45.83
29879;BME280;16752;53.364;-1.488;2023-11-21T02:25:28;100654.56;;;16.34;45.91
29879;BME280;16752;53.364;-1.488;2023-11-21T02:28:13;100659.41;;;16.60;44.64
29879;BME280;16752;53.364;-1.488;2023-11-21T02:30:59;100657.13;;;16.45;45.74
29879;BME280;16752;53.364;-1.488;2023-11-21T02:33:43;100666.63;;;16.27;45.80
29879;BME280;16752;53.364;-1.488;2023-11-21T02:36:27;100668.16;;;16.71;44.92
29879;BME280;16752;53.364;-1.488;2023-11-21T02:39:11;100666.72;;;16.46;45.59
29879;BME280;16752;53.364;-1.488;2023-11-21T02:41:55;100657.81;;;16.47;44.52
29879;BME280;16752;53.364;-1.488;2023-11-21T02:44:39;100666.38;;;16.61;44.95
29879;BME280;16752;53.364;-1.488;2023-11-21T02:47:23;100654.06;;;16.19;45.24
29879;BME280;16752;53.364;-1.488;2023-11-21T02:50:07;100664.47;;;16.93;44.25
29879;BME280;16752;53.364;-1.488;2023-11-21T02:52:52;100667.19;;;16.52;44.96
29879;BME280;16752;53.364;-1.488;2023-11-21T02:55:36;100668.09;;;16.92;44.30
29879;BME280;16752;53.364;-1.488;2023-11-21T02:58:20;100658.41;;;16.72;44.60
29879;BME280;16752;53.364;-1.488;2023-11-21T03:01:05;100671.88;;;16.69;44.81
29879;BME280;16752;53.364;-1.488;2023-11-21T03:03:51;100680.84;;;16.57;44.98
29879;BME280;16752;53.364;-1.488;2023-11-21T03:06:35;100654.53;;;16.55;44.57
29879;BME280;16752;53.364;-1.488;2023-11-21T03:09:19;100671.88;;;16.48;45.07
29879;BME280;16752;53.364;-1.488;2023-11-21T03:12:03;100672.59;;;16.71;44.78
29879;BME280;16752;53.364;-1.488;2023-11-21T03:14:47;100668.63;;;16.65;44.39
29879;BME280;16752;53.364;-1.488;2023-11-21T03:17:32;100652.50;;;16.38;44.50
29879;BME280;16752;53.364;-1.488;2023-11-21T03:20:17;100669.31;;;16.88;43.95
29879;BME280;16752;53.364;-1.488;2023-11-21T03:23:01;100692.16;;;16.89;44.13
29879;BME280;16752;53.364;-1.488;2023-11-21T03:25:45;100679.44;;;16.53;45.28
29879;BME280;16752;53.364;-1.488;2023-11-21T03:28:29;100653.59;;;15.94;46.76
29879;BME280;16752;53.364;-1.488;2023-11-21T03:31:13;100663.09;;;16.47;44.87
29879;BME280;16752;53.364;-1.488;2023-11-21T03:33:59;100643.59;;;16.39;45.11
29879;BME280;16752;53.364;-1.488;2023-11-21T03:36:43;100670.91;;;16.70;44.90
29879;BME280;16752;53.364;-1.488;2023-11-21T03:39:27;100672.91;;;16.57;45.38
29879;BME280;16752;53.364;-1.488;2023-11-21T03:42:13;100687.09;;;16.76;44.57
29879;BME280;16752;53.364;-1.488;2023-11-21T03:44:57;100678.97;;;16.68;45.13
29879;BME280;16752;53.364;-1.488;2023-11-21T03:47:41;100706.06;;;16.40;46.30
29879;BME280;16752;53.364;-1.488;2023-11-21T03:50:25;100708.97;;;16.78;45.47
29879;BME280;16752;53.364;-1.488;2023-11-21T03:53:09;100711.53;;;16.48;46.13
29879;BME280;16752;53.364;-1.488;2023-11-21T03:55:53;100711.06;;;16.33;46.66
29879;BME280;16752;53.364;-1.488;2023-11-21T03:58:37;100707.47;;;16.02;46.92
29879;BME280;16752;53.364;-1.488;2023-11-21T04:01:22;100720.84;;;16.84;45.78
29879;BME280;16752;53.364;-1.488;2023-11-21T04:04:06;100710.63;;;16.28;46.76
29879;BME280;16752;53.364;-1.488;2023-11-21T04:06:50;100699.91;;;16.50;45.69
29879;BME280;16752;53.364;-1.488;2023-11-21T04:09:35;100723.44;;;16.12;47.39
29879;BME280;16752;53.364;-1.488;2023-11-21T04:12:20;100744.97;;;16.70;46.13
29879;BME280;16752;53.364;-1.488;2023-11-21T04:15:04;100739.31;;;16.54;46.63
29879;BME280;16752;53.364;-1.488;2023-11-21T04:17:48;100724.41;;;16.73;45.83
29879;BME280;16752;53.364;-1.488;2023-11-21T04:20:32;100740.00;;;16.56;46.75
29879;BME280;16752;53.364;-1.488;2023-11-21T04:23:16;100759.34;;;16.35;47.25
29879;BME280;16752;53.364;-1.488;2023-11-21T04:26:00;100758.53;;;16.56;47.50
29879;BME280;16752;53.364;-1.488;2023-11-21T04:28:46;100710.22;;;16.33;47.45
29879;BME280;16752;53.364;-1.488;2023-11-21T04:31:30;100765.53;;;16.45;48.01
29879;BME280;16752;53.364;-1.488;2023-11-21T04:34:14;100778.00;;;16.55;48.88
29879;BME280;16752;53.364;-1.488;2023-11-21T04:36:59;100781.88;;;16.50;49.02
29879;BME280;16752;53.364;-1.488;2023-11-21T04:39:43;100783.16;;;16.03;49.94
29879;BME280;16752;53.364;-1.488;2023-11-21T04:42:27;100802.41;;;15.83;51.46
29879;BME280;16752;53.364;-1.488;2023-11-21T04:45:12;100809.47;;;16.58;49.64
29879;BME280;16752;53.364;-1.488;2023-11-21T04:47:56;100804.50;;;16.43;49.71
29879;BME280;16752;53.364;-1.488;2023-11-21T04:50:40;100817.72;;;16.43;49.92
29879;BME280;16752;53.364;-1.488;2023-11-21T04:53:24;100810.19;;;16.07;51.26
29879;BME280;16752;53.364;-1.488;2023-11-21T04:56:08;100804.78;;;15.97;51.08
29879;BME280;16752;53.364;-1.488;2023-11-21T04:58:53;100797.97;;;15.95;51.67
29879;BME280;16752;53.364;-1.488;2023-11-21T05:01:37;100814.16;;;16.33;50.59
29879;BME280;16752;53.364;-1.488;2023-11-21T05:04:22;100804.13;;;16.16;50.91
29879;BME280;16752;53.364;-1.488;2023-11-21T05:07:06;100813.63;;;16.18;50.87
29879;BME280;16752;53.364;-1.488;2023-11-21T05:09:50;100808.50;;;16.06;51.18
29879;BME280;16752;53.364;-1.488;2023-11-21T05:12:34;100823.72;;;15.59;52.78
29879;BME280;16752;53.364;-1.488;2023-11-21T05:15:24;100788.38;;;15.82;51.90
29879;BME280;16752;53.364;-1.488;2023-11-21T05:18:08;100808.88;;;16.01;51.94
29879;BME280;16752;53.364;-1.488;2023-11-21T05:20:52;100817.94;;;15.87;52.39
29879;BME280;16752;53.364;-1.488;2023-11-21T05:23:37;100806.19;;;15.69;52.23
29879;BME280;16752;53.364;-1.488;2023-11-21T05:26:21;100820.63;;;16.08;51.56
29879;BME280;16752;53.364;-1.488;2023-11-21T05:29:05;100809.94;;;16.10;51.45
29879;BME280;16752;53.364;-1.488;2023-11-21T05:31:49;100824.56;;;16.14;51.59
29879;BME280;16752;53.364;-1.488;2023-11-21T05:34:33;100845.78;;;15.58;53.01
29879;BME280;16752;53.364;-1.488;2023-11-21T05:37:17;100843.34;;;16.00;51.90
29879;BME280;16752;53.364;-1.488;2023-11-21T05:40:02;100866.16;;;16.01;51.99
29879;BME280;16752;53.364;-1.488;2023-11-21T05:42:51;100869.38;;;16.15;51.60
29879;BME280;16752;53.364;-1.488;2023-11-21T05:45:35;100855.97;;;16.07;51.66
29879;BME280;16752;53.364;-1.488;2023-11-21T05:48:19;100879.38;;;16.01;52.27
29879;BME280;16752;53.364;-1.488;2023-11-21T05:51:06;100889.00;;;15.91;52.12
29879;BME280;16752;53.364;-1.488;2023-11-21T05:53:50;100888.28;;;15.77;52.57
29879;BME280;16752;53.364;-1.488;2023-11-21T05:56:34;100890.34;;;15.85;52.48
29879;BME280;16752;53.364;-1.488;2023-11-21T05:59:18;100904.50;;;15.95;52.82
29879;BME280;16752;53.364;-1.488;2023-11-21T06:02:01;100912.31;;;16.08;52.26
29879;BME280;16752;53.364;-1.488;2023-11-21T06:04:45;100927.16;;;16.31;51.70
29879;BME280;16752;53.364;-1.488;2023-11-21T06:07:29;100908.81;;;16.07;52.20
29879;BME280;16752;53.364;-1.488;2023-11-21T06:10:13;100939.28;;;16.23;51.69
29879;BME280;16752;53.364;-1.488;2023-11-21T06:12:58;100939.09;;;15.92;52.41
29879;BME280;16752;53.364;-1.488;2023-11-21T06:15:42;100948.56;;;15.95;52.50
29879;BME280;16752;53.364;-1.488;2023-11-21T06:18:26;100937.88;;;16.07;51.31
29879;BME280;16752;53.364;-1.488;2023-11-21T06:21:10;100940.75;;;15.82;51.96
29879;BME280;16752;53.364;-1.488;2023-11-21T06:23:54;100952.28;;;15.81;52.35
29879;BME280;16752;53.364;-1.488;2023-11-21T06:26:40;100964.06;;;15.77;52.05
29879;BME280;16752;53.364;-1.488;2023-11-21T06:29:24;100951.63;;;15.33;53.59
29879;BME280;16752;53.364;-1.488;2023-11-21T06:32:08;100977.03;;;16.13;51.18
29879;BME280;16752;53.364;-1.488;2023-11-21T06:34:52;100981.03;;;16.08;51.76
29879;BME280;16752;53.364;-1.488;2023-11-21T06:37:38;100983.41;;;16.00;51.92
29879;BME280;16752;53.364;-1.488;2023-11-21T06:40:22;100990.59;;;15.75;52.48
29879;BME280;16752;53.364;-1.488;2023-11-21T06:43:05;100999.97;;;16.02;52.00
29879;BME280;16752;53.364;-1.488;2023-11-21T06:45:50;101004.94;;;16.06;51.31
29879;BME280;16752;53.364;-1.488;2023-11-21T06:48:34;101008.38;;;16.18;51.21
29879;BME280;16752;53.364;-1.488;2023-11-21T06:51:18;101017.19;;;16.07;51.24
29879;BME280;16752;53.364;-1.488;2023-11-21T06:54:02;101018.75;;;16.10;51.08
29879;BME280;16752;53.364;-1.488;2023-11-21T06:56:46;101023.53;;;16.05;51.24
29879;BME280;16752;53.364;-1.488;2023-11-21T06:59:31;101045.16;;;16.43;50.58
29879;BME280;16752;53.364;-1.488;2023-11-21T07:02:16;101030.72;;;16.25;51.16
29879;BME280;16752;53.364;-1.488;2023-11-21T07:05:02;101057.31;;;16.12;51.36
29879;BME280;16752;53.364;-1.488;2023-11-21T07:07:46;101068.69;;;16.46;50.88
29879;BME280;16752;53.364;-1.488;2023-11-21T07:10:30;101051.34;;;15.64;52.95
29879;BME280;16752;53.364;-1.488;2023-11-21T07:13:13;101073.22;;;15.66;52.67
29879;BME280;16752;53.364;-1.488;2023-11-21T07:15:59;101079.03;;;15.94;52.10
29879;BME280;16752;53.364;-1.488;2023-11-21T07:18:43;101078.84;;;15.62;53.30
29879;BME280;16752;53.364;-1.488;2023-11-21T07:21:27;101106.81;;;16.22;51.61
29879;BME280;16752;53.364;-1.488;2023-11-21T07:24:11;101122.84;;;15.85;52.49
29879;BME280;16752;53.364;-1.488;2023-11-21T07:26:54;101102.72;;;16.17;51.11
29879;BME280;16752;53.364;-1.488;2023-11-21T07:29:40;101122.63;;;15.88;51.79
29879;BME280;16752;53.364;-1.488;2023-11-21T07:32:24;101127.38;;;16.29;50.57
29879;BME280;16752;53.364;-1.488;2023-11-21T07:35:09;101135.16;;;16.08;51.87
29879;BME280;16752;53.364;-1.488;2023-11-21T07:37:53;101131.03;;;15.93;52.22
29879;BME280;16752;53.364;-1.488;2023-11-21T07:40:37;101115.34;;;16.14;51.51
29879;BME280;16752;53.364;-1.488;2023-11-21T07:43:21;101138.66;;;16.20;51.54
29879;BME280;16752;53.364;-1.488;2023-11-21T07:46:05;101144.66;;;15.76;52.18
29879;BME280;16752;53.364;-1.488;2023-11-21T07:48:50;101146.94;;;15.80;52.92
29879;BME280;16752;53.364;-1.488;2023-11-21T07:51:36;101160.28;;;16.25;51.72
29879;BME280;16752;53.364;-1.488;2023-11-21T07:54:20;101162.91;;;16.14;51.51
29879;BME280;16752;53.364;-1.488;2023-11-21T07:57:05;101152.91;;;15.95;51.65
29879;BME280;16752;53.364;-1.488;2023-11-21T07:59:49;101176.69;;;15.95;51.67
29879;BME280;16752;53.364;-1.488;2023-11-21T08:02:33;101174.56;;;16.11;51.39
29879;BME280;16752;53.364;-1.488;2023-11-21T08:05:18;101192.59;;;16.17;51.38
29879;BME280;16752;53.364;-1.488;2023-11-21T08:08:02;101192.41;;;15.85;52.04
29879;BME280;16752;53.364;-1.488;2023-11-21T08:10:45;101190.00;;;15.94;51.93
29879;BME280;16752;53.364;-1.488;2023-11-21T08:13:40;101199.63;;;15.95;52.31
29879;BME280;16752;53.364;-1.488;2023-11-21T08:16:23;101203.00;;;15.73;52.74
29879;BME280;16752;53.364;-1.488;2023-11-21T08:19:07;101170.59;;;15.58;52.27
29879;BME280;16752;53.364;-1.488;2023-11-21T08:21:53;101218.34;;;15.92;52.24
29879;BME280;16752;53.364;-1.488;2023-11-21T08:24:38;101224.25;;;15.95;51.90
29879;BME280;16752;53.364;-1.488;2023-11-21T08:27:22;101218.72;;;15.63;52.56
29879;BME280;16752;53.364;-1.488;2023-11-21T08:30:06;101225.44;;;15.67;52.35
29879;BME280;16752;53.364;-1.488;2023-11-21T08:32:51;101235.16;;;15.67;52.30
29879;BME280;16752;53.364;-1.488;2023-11-21T08:35:38;101230.41;;;15.83;51.97
29879;BME280;16752;53.364;-1.488;2023-11-21T08:38:22;101236.69;;;16.17;50.86
29879;BME280;16752;53.364;-1.488;2023-11-21T08:41:07;101244.31;;;15.98;51.27
29879;BME280;16752;53.364;-1.488;2023-11-21T08:43:51;101238.38;;;15.46;52.03
29879;BME280;16752;53.364;-1.488;2023-11-21T08:46:35;101228.09;;;15.54;51.60
29879;BME280;16752;53.364;-1.488;2023-11-21T08:49:20;101254.31;;;15.81;51.20
29879;BME280;16752;53.364;-1.488;2023-11-21T08:52:04;101272.66;;;15.96;51.44
29879;BME280;16752;53.364;-1.488;2023-11-21T08:54:49;101259.69;;;15.69;51.59
29879;BME280;16752;53.364;-1.488;2023-11-21T08:57:40;101238.41;;;15.34;52.50
29879;BME280;16752;53.364;-1.488;2023-11-21T09:00:25;101277.28;;;15.32;53.29
29879;BME280;16752;53.364;-1.488;2023-11-21T09:03:08;101276.97;;;15.73;52.21
29879;BME280;16752;53.364;-1.488;2023-11-21T09:05:52;101285.38;;;15.91;51.86
29879;BME280;16752;53.364;-1.488;2023-11-21T09:08:36;101263.84;;;15.84;51.45
29879;BME280;16752;53.364;-1.488;2023-11-21T09:11:21;101304.72;;;16.26;50.83
29879;BME280;16752;53.364;-1.488;2023-11-21T09:14:05;101270.41;;;15.78;52.20
29879;BME280;16752;53.364;-1.488;2023-11-21T09:16:49;101285.47;;;15.40;53.53
29879;BME280;16752;53.364;-1.488;2023-11-21T09:19:34;101297.28;;;15.72;52.51
29879;BME280;16752;53.364;-1.488;2023-11-21T09:22:18;101273.94;;;15.53;52.60
29879;BME280;16752;53.364;-1.488;2023-11-21T09:25:02;101308.34;;;16.25;50.86
29879;BME280;16752;53.364;-1.488;2023-11-21T09:27:48;101320.78;;;16.12;51.36
29879;BME280;16752;53.364;-1.488;2023-11-21T09:30:36;101318.09;;;16.01;51.30
29879;BME280;16752;53.364;-1.488;2023-11-21T09:33:20;101327.72;;;15.65;52.11
29879;BME280;16752;53.364;-1.488;2023-11-21T09:36:10;101318.50;;;15.58;52.36
29879;BME280;16752;53.364;-1.488;2023-11-21T09:38:54;101342.59;;;16.03;51.28
29879;BME280;16752;53.364;-1.488;2023-11-21T09:41:44;101343.97;;;15.84;50.84
29879;BME280;16752;53.364;-1.488;2023-11-21T09:44:39;101347.16;;;16.25;49.88
29879;BME280;16752;53.364;-1.488;2023-11-21T09:47:27;101361.44;;;16.22;49.98
29879;BME280;16752;53.364;-1.488;2023-11-21T09:50:16;101342.47;;;15.80;50.60
29879;BME280;16752;53.364;-1.488;2023-11-21T09:55:58;101355.75;;;15.92;50.23
29879;BME280;16752;53.364;-1.488;2023-11-21T09:58:44;101357.53;;;16.28;48.86
29879;BME280;16752;53.364;-1.488;2023-11-21T10:01:28;101365.72;;;16.12;49.43
29879;BME280;16752;53.364;-1.488;2023-11-21T10:04:13;101384.84;;;16.39;49.30
29879;BME280;16752;53.364;-1.488;2023-11-21T10:06:57;101391.28;;;15.87;49.00
29879;BME280;16752;53.364;-1.488;2023-11-21T10:09:41;101391.47;;;15.97;49.78
29879;BME280;16752;53.364;-1.488;2023-11-21T10:12:26;101381.53;;;15.64;49.93
29879;BME280;16752;53.364;-1.488;2023-11-21T10:15:12;101384.66;;;15.69;49.37
29879;BME280;16752;53.364;-1.488;2023-11-21T10:18:02;101386.88;;;16.36;48.65
29879;BME280;16752;53.364;-1.488;2023-11-21T10:20:46;101371.25;;;16.33;47.36
29879;BME280;16752;53.364;-1.488;2023-11-21T10:23:35;101396.84;;;16.08;47.76
29879;BME280;16752;53.364;-1.488;2023-11-21T10:26:20;101401.53;;;16.29;47.70
29879;BME280;16752;53.364;-1.488;2023-11-21T10:29:07;101404.81;;;16.43;46.43
29879;BME280;16752;53.364;-1.488;2023-11-21T10:31:51;101417.03;;;16.81;46.50
29879;BME280;16752;53.364;-1.488;2023-11-21T10:34:38;101415.16;;;16.46;46.10
29879;BME280;16752;53.364;-1.488;2023-11-21T10:37:24;101424.59;;;16.74;46.39
29879;BME280;16752;53.364;-1.488;2023-11-21T10:40:11;101439.19;;;16.91;45.92
29879;BME280;16752;53.364;-1.488;2023-11-21T10:43:06;101429.53;;;16.55;46.93
29879;BME280;16752;53.364;-1.488;2023-11-21T10:45:49;101445.78;;;16.62;46.24
29879;BME280;16752;53.364;-1.488;2023-11-21T10:48:34;101440.97;;;16.79;46.33
29879;BME280;16752;53.364;-1.488;2023-11-21T10:51:20;101442.97;;;16.28;47.24
29879;BME280;16752;53.364;-1.488;2023-11-21T10:54:04;101437.81;;;16.50;46.99
29879;BME280;16752;53.364;-1.488;2023-11-21T10:56:56;101452.72;;;16.52;44.85
29879;BME280;16752;53.364;-1.488;2023-11-21T10:59:40;101448.91;;;16.56;45.97
29879;BME280;16752;53.364;-1.488;2023-11-21T11:02:25;101449.25;;;16.75;45.26
29879;BME280;16752;53.364;-1.488;2023-11-21T11:05:12;101463.94;;;16.55;45.87
29879;BME280;16752;53.364;-1.488;2023-11-21T11:07:59;101440.72;;;16.71;45.17
29879;BME280;16752;53.364;-1.488;2023-11-21T11:10:50;101473.66;;;17.02;45.12
29879;BME280;16752;53.364;-1.488;2023-11-21T11:13:35;101462.19;;;16.91;44.87
29879;BME280;16752;53.364;-1.488;2023-11-21T11:16:20;101465.03;;;16.64;45.42
29879;BME280;16752;53.364;-1.488;2023-11-21T11:19:06;101478.84;;;17.61;43.17
29879;BME280;16752;53.364;-1.488;2023-11-21T11:25:07;101483.41;;;17.48;43.24
29879;BME280;16752;53.364;-1.488;2023-11-21T11:31:05;101471.03;;;17.60;42.27
29879;BME280;16752;53.364;-1.488;2023-11-21T11:34:30;101485.13;;;17.60;41.78
29879;BME280;16752;53.364;-1.488;2023-11-21T11:37:16;101469.09;;;17.62;42.59
29879;BME280;16752;53.364;-1.488;2023-11-21T11:40:00;101480.75;;;17.02;43.02
29879;BME280;16752;53.364;-1.488;2023-11-21T11:43:01;101478.25;;;17.11;42.97
29879;BME280;16752;53.364;-1.488;2023-11-21T11:45:48;101470.34;;;17.23;42.44
29879;BME280;16752;53.364;-1.488;2023-11-21T11:48:38;101476.00;;;17.76;41.44
29879;BME280;16752;53.364;-1.488;2023-11-21T11:51:23;101470.53;;;17.66;41.91
29879;BME280;16752;53.364;-1.488;2023-11-21T11:54:07;101466.03;;;17.33;39.89
29879;BME280;16752;53.364;-1.488;2023-11-21T11:56:52;101501.44;;;16.97;40.95
29879;BME280;16752;53.364;-1.488;2023-11-21T12:03:06;101501.88;;;17.15;41.38
29879;BME280;16752;53.364;-1.488;2023-11-21T12:05:51;101502.66;;;17.50;40.68
29879;BME280;16752;53.364;-1.488;2023-11-21T12:08:43;101474.69;;;18.58;39.66
29879;BME280;16752;53.364;-1.488;2023-11-21T12:11:31;101487.56;;;19.27;39.21
29879;BME280;16752;53.364;-1.488;2023-11-21T12:14:16;101504.94;;;20.03;36.94
29879;BME280;16752;53.364;-1.488;2023-11-21T12:17:00;101495.06;;;20.64;35.25
29879;BME280;16752;53.364;-1.488;2023-11-21T12:19:44;101491.84;;;20.70;34.03
29879;BME280;16752;53.364;-1.488;2023-11-21T12:22:28;101485.19;;;19.96;34.02
29879;BME280;16752;53.364;-1.488;2023-11-21T12:25:23;101497.69;;;20.14;35.39
29879;BME280;16752;53.364;-1.488;2023-11-21T12:28:08;101497.56;;;20.16;36.04
29879;BME280;16752;53.364;-1.488;2023-11-21T12:30:52;101505.81;;;20.53;36.57
29879;BME280;16752;53.364;-1.488;2023-11-21T12:33:36;101474.59;;;20.15;35.43
29879;BME280;16752;53.364;-1.488;2023-11-21T12:36:21;101502.78;;;20.87;35.13
29879;BME280;16752;53.364;-1.488;2023-11-21T12:39:05;101494.50;;;20.90;34.58
29879;BME280;16752;53.364;-1.488;2023-11-21T12:41:53;101493.22;;;21.23;33.27
29879;BME280;16752;53.364;-1.488;2023-11-21T12:44:36;101494.47;;;20.51;34.73
29879;BME280;16752;53.364;-1.488;2023-11-21T12:47:24;101493.00;;;20.37;35.69
29879;BME280;16752;53.364;-1.488;2023-11-21T12:50:09;101507.50;;;20.44;34.75
29879;BME280;16752;53.364;-1.488;2023-11-21T12:52:58;101505.59;;;19.95;35.59
29879;BME280;16752;53.364;-1.488;2023-11-21T12:55:43;101500.94;;;18.83;38.44
29879;BME280;16752;53.364;-1.488;2023-11-21T12:58:33;101508.44;;;18.78;38.63
29879;BME280;16752;53.364;-1.488;2023-11-21T13:01:19;101492.38;;;18.14;38.75
29879;BME280;16752;53.364;-1.488;2023-11-21T13:04:07;101513.22;;;18.30;39.30
29879;BME280;16752;53.364;-1.488;2023-11-21T13:06:51;101516.00;;;17.73;40.83
29879;BME280;16752;53.364;-1.488;2023-11-21T13:09:35;101531.66;;;17.76;40.44
29879;BME280;16752;53.364;-1.488;2023-11-21T13:12:24;101529.09;;;17.63;41.37
29879;BME280;16752;53.364;-1.488;2023-11-21T13:15:09;101533.09;;;17.68;41.61
29879;BME280;16752;53.364;-1.488;2023-11-21T13:17:54;101548.91;;;17.81;41.74
29879;BME280;16752;53.364;-1.488;2023-11-21T13:20:40;101542.50;;;17.95;41.31
29879;BME280;16752;53.364;-1.488;2023-11-21T13:23:25;101538.63;;;17.77;41.31
29879;BME280;16752;53.364;-1.488;2023-11-21T13:26:09;101562.41;;;17.89;42.02
29879;BME280;16752;53.364;-1.488;2023-11-21T13:28:53;101565.78;;;17.80;41.15
29879;BME280;16752;53.364;-1.488;2023-11-21T13:31:37;101540.22;;;17.90;41.57
29879;BME280;16752;53.364;-1.488;2023-11-21T13:34:22;101581.13;;;18.44;42.95
29879;BME280;16752;53.364;-1.488;2023-11-21T13:37:09;101580.69;;;18.93;41.28
29879;BME280;16752;53.364;-1.488;2023-11-21T13:39:53;101579.25;;;19.21;39.77
29879;BME280;16752;53.364;-1.488;2023-11-21T13:42:38;101592.28;;;19.24;38.05
29879;BME280;16752;53.364;-1.488;2023-11-21T13:45:22;101606.75;;;18.99;40.24
29879;BME280;16752;53.364;-1.488;2023-11-21T13:48:10;101590.88;;;18.10;41.65
29879;BME280;16752;53.364;-1.488;2023-11-21T13:50:57;101561.81;;;18.30;40.12
29879;BME280;16752;53.364;-1.488;2023-11-21T13:54:00;101573.25;;;18.42;40.58
29879;BME280;16752;53.364;-1.488;2023-11-21T13:56:46;101589.78;;;18.12;41.90
29879;BME280;16752;53.364;-1.488;2023-11-21T13:59:29;101577.38;;;18.01;41.62
29879;BME280;16752;53.364;-1.488;2023-11-21T14:02:15;101576.00;;;17.50;42.65
29879;BME280;16752;53.364;-1.488;2023-11-21T14:05:03;101571.25;;;17.66;42.33
29879;BME280;16752;53.364;-1.488;2023-11-21T14:07:52;101570.25;;;18.02;42.28
29879;BME280;16752;53.364;-1.488;2023-11-21T14:10:36;101572.59;;;18.95;39.96
29879;BME280;16752;53.364;-1.488;2023-11-21T14:13:24;101568.56;;;19.11;37.66
29879;BME280;16752;53.364;-1.488;2023-11-21T14:16:08;101571.81;;;18.72;38.84
29879;BME280;16752;53.364;-1.488;2023-11-21T14:18:54;101571.56;;;18.19;40.98
29879;BME280;16752;53.364;-1.488;2023-11-21T14:21:46;101591.59;;;18.45;39.89
29879;BME280;16752;53.364;-1.488;2023-11-21T14:24:30;101554.53;;;17.77;40.93
29879;BME280;16752;53.364;-1.488;2023-11-21T14:27:14;101592.44;;;18.01;41.36